»·PEaware :: SWA6227 KRNO-KLAX

SWA6227 :: KRNO-KLAX

FLIGHT INFORMATION

Flight Status: Arrived
Operator:
Southwest Airlines
More flights by this operator :: More flights under this callsign
Pilot: Jeff S. (20204)
Aircraft: BOEING 737-800
(B738)
More flights by this aircraft type
Origin: KRNO Reno/Tahoe Intl
United States
Destination: KLAX Los Angeles Intl
United States
More flights between these airports :: More routes between these airports
Route: +ZEFFR6 DARBI FRA J7 REBRG IRNMN2
File this flight plan on PilotEdge
Remarks:
Altitude:
(Current/Filed)
35,000ft
Speed:
(Current/Filed)
470kts
Departed: 15-Nov-18 07:51 PM
Arrived: 15-Nov-18 08:59 PM
Distance/Time
Traveled:
340nm/1:08
Distance/Time
To Go:
Arrived

Flight Plot

Page will automatically refresh every two minutes.

Flight plan parsing failed; only flown route is shown


Map Options




Map Legend


Flown Route
Filed Route
Departure Airport
Arrival Airport
Navaid (VOR, NDB)
Fix

Horizontal Profiles

Position Reports

Time Latitude Longitude Heading Altitude Ground
Speed
15-Nov-18 19:35 39.505246 -119.773162 184 4413ft 0kts
15-Nov-18 19:36 39.505246 -119.773162 184 4413ft 0kts
15-Nov-18 19:37 39.505246 -119.773162 184 4413ft 0kts
15-Nov-18 19:38 39.505246 -119.773162 184 4413ft 0kts
15-Nov-18 19:39 39.505246 -119.773162 184 4413ft 0kts
15-Nov-18 19:40 39.505246 -119.773162 184 4413ft 0kts
15-Nov-18 19:41 39.505246 -119.773162 184 4413ft 0kts
15-Nov-18 19:42 39.505247 -119.773162 184 4413ft 0kts
15-Nov-18 19:43 39.505712 -119.773141 157 4413ft 2kts
15-Nov-18 19:44 39.505922 -119.773541 90 4414ft 0kts
15-Nov-18 19:45 39.505922 -119.773541 90 4414ft 0kts
15-Nov-18 19:46 39.505922 -119.773541 90 4414ft 0kts
15-Nov-18 19:47 39.505922 -119.773541 90 4414ft 0kts
15-Nov-18 19:48 39.505913 -119.772187 89 4412ft 0kts
15-Nov-18 19:49 39.505913 -119.772187 89 4412ft 0kts
15-Nov-18 19:50 39.507810 -119.771492 0 4413ft 23kts
15-Nov-18 19:51 39.513216 -119.771451 1 4420ft 10kts
15-Nov-18 19:52 39.513736 -119.770500 87 4418ft 0kts
15-Nov-18 19:53 39.513738 -119.770456 87 4418ft 3kts
15-Nov-18 19:54 39.509674 -119.769217 180 4413ft 78kts
15-Nov-18 19:55 39.465856 -119.770253 179 6295ft 181kts
15-Nov-18 19:56 39.403553 -119.769102 179 7728ft 255kts
15-Nov-18 19:57 39.330885 -119.769530 179 10448ft 266kts
15-Nov-18 19:58 39.255788 -119.767471 177 13177ft 275kts
15-Nov-18 19:59 39.178811 -119.764532 177 15720ft 280kts
15-Nov-18 20:00 39.100633 -119.761555 177 18026ft 284kts
15-Nov-18 20:01 39.018201 -119.758396 178 19505ft 327kts
15-Nov-18 20:02 38.921968 -119.754720 180 21578ft 358kts
15-Nov-18 20:03 38.819672 -119.750915 181 23811ft 376kts
15-Nov-18 20:04 38.713599 -119.746973 181 25939ft 390kts
15-Nov-18 20:05 38.603375 -119.742876 182 27844ft 404kts
15-Nov-18 20:06 38.489356 -119.738635 182 29613ft 417kts
15-Nov-18 20:07 38.373602 -119.734275 183 31669ft 417kts
15-Nov-18 20:08 38.257650 -119.727358 179 33557ft 418kts
15-Nov-18 20:09 38.142522 -119.713722 180 35232ft 415kts
15-Nov-18 20:10 38.023701 -119.700157 180 35273ft 445kts
15-Nov-18 20:11 37.898173 -119.685779 179 35209ft 454kts
15-Nov-18 20:12 37.772610 -119.671411 179 35217ft 453kts
15-Nov-18 20:13 37.646588 -119.657058 179 35222ft 454kts
15-Nov-18 20:14 37.520882 -119.642749 179 35200ft 454kts
15-Nov-18 20:15 37.395126 -119.628437 179 35149ft 454kts
15-Nov-18 20:16 37.269121 -119.614105 179 35149ft 454kts
15-Nov-18 20:17 37.143314 -119.599794 179 35150ft 454kts
15-Nov-18 20:18 37.018093 -119.596721 185 35150ft 451kts
15-Nov-18 20:19 36.893313 -119.599046 184 35148ft 451kts
15-Nov-18 20:20 36.767953 -119.601228 184 35148ft 451kts
15-Nov-18 20:21 36.642358 -119.603402 184 35146ft 451kts
15-Nov-18 20:22 36.517203 -119.605558 184 35153ft 451kts
15-Nov-18 20:23 36.392383 -119.607700 184 35158ft 451kts
15-Nov-18 20:24 36.269784 -119.609796 184 35158ft 451kts
15-Nov-18 20:25 36.144874 -119.611924 184 35158ft 451kts
15-Nov-18 20:26 36.019396 -119.614055 184 35158ft 451kts
15-Nov-18 20:27 35.899414 -119.644869 200 35155ft 442kts
15-Nov-18 20:28 35.782812 -119.689176 200 35153ft 442kts
15-Nov-18 20:29 35.665192 -119.733043 198 35147ft 443kts
15-Nov-18 20:30 35.544022 -119.762699 194 35147ft 445kts
15-Nov-18 20:31 35.423010 -119.791937 194 35144ft 445kts
15-Nov-18 20:32 35.299407 -119.802360 171 35142ft 460kts
15-Nov-18 20:33 35.184552 -119.727634 145 35123ft 480kts
15-Nov-18 20:34 35.078879 -119.628372 145 35065ft 478kts
15-Nov-18 20:35 34.972040 -119.529113 144 32578ft 485kts
15-Nov-18 20:36 34.866877 -119.432816 144 29191ft 475kts
15-Nov-18 20:37 34.759904 -119.337262 144 25922ft 483kts
15-Nov-18 20:38 34.653954 -119.244365 144 22743ft 491kts
15-Nov-18 20:39 34.543296 -119.148741 143 20112ft 492kts
15-Nov-18 20:40 34.440639 -119.057897 143 19552ft 414kts
15-Nov-18 20:41 34.350780 -118.979956 143 16290ft 383kts
15-Nov-18 20:42 34.266543 -118.904118 141 14269ft 373kts
15-Nov-18 20:43 34.185225 -118.829512 141 12362ft 360kts
15-Nov-18 20:44 34.109965 -118.751157 136 12014ft 356kts
15-Nov-18 20:45 34.042762 -118.670939 118 9797ft 320kts
15-Nov-18 20:46 34.021994 -118.575998 96 8454ft 273kts
15-Nov-18 20:47 34.013346 -118.489675 95 7386ft 245kts
15-Nov-18 20:48 34.016077 -118.411936 81 6560ft 224kts
15-Nov-18 20:49 34.024475 -118.331740 82 4907ft 255kts
15-Nov-18 20:50 34.033682 -118.250006 82 3997ft 225kts
15-Nov-18 20:51 34.040967 -118.182194 81 4012ft 190kts
15-Nov-18 20:52 34.047895 -118.118551 81 4019ft 191kts
15-Nov-18 20:53 34.053822 -118.057038 96 4016ft 181kts
15-Nov-18 20:54 34.017295 -118.022140 172 4020ft 184kts
15-Nov-18 20:55 33.980800 -118.056093 263 4015ft 181kts
15-Nov-18 20:56 33.981808 -118.115906 266 3994ft 169kts
15-Nov-18 20:57 33.975609 -118.172902 263 3858ft 173kts
15-Nov-18 20:58 33.969958 -118.229117 263 2993ft 168kts
15-Nov-18 20:59 33.964283 -118.284573 263 2084ft 164kts
15-Nov-18 21:00 33.958685 -118.338723 263 1193ft 162kts
15-Nov-18 21:01 33.953523 -118.388627 263 383ft 145kts
15-Nov-18 21:02 33.949650 -118.418827 233 124ft 17kts
15-Nov-18 21:03 33.949355 -118.419295 232 124ft 0kts
15-Nov-18 21:04 33.947625 -118.422068 233 121ft 13kts
15-Nov-18 21:05 33.947416 -118.416712 83 125ft 27kts
15-Nov-18 21:06 33.948311 -118.409374 83 128ft 24kts
15-Nov-18 21:07 33.947967 -118.404646 83 124ft 15kts
15-Nov-18 21:08 33.946708 -118.402029 88 122ft 7kts
15-Nov-18 21:09 33.946729 -118.401713 83 122ft 0kts
15-Nov-18 21:10 33.946729 -118.401710 83 122ft 0kts

Navigation Log

Ident Type
Flight plan parsing failed, navigation log unavailable